sensor_id;sensor_type;location;lat;lon;timestamp;P1;durP1;ratioP1;P2;durP2;ratioP2
52674;SDS011;38569;52.722;6.440;2022-10-17T00:01:28;10.70;;;4.80;;
52674;SDS011;38569;52.722;6.440;2022-10-17T00:03:53;10.35;;;4.90;;
52674;SDS011;38569;52.722;6.440;2022-10-17T00:06:19;12.20;;;4.72;;
52674;SDS011;38569;52.722;6.440;2022-10-17T00:08:45;11.27;;;5.30;;
52674;SDS011;38569;52.722;6.440;2022-10-17T00:11:13;17.92;;;6.05;;
52674;SDS011;38569;52.722;6.440;2022-10-17T00:13:40;10.18;;;5.68;;
52674;SDS011;38569;52.722;6.440;2022-10-17T00:16:06;10.40;;;5.10;;
52674;SDS011;38569;52.722;6.440;2022-10-17T00:18:33;10.18;;;5.88;;
52674;SDS011;38569;52.722;6.440;2022-10-17T00:20:58;8.50;;;5.85;;
52674;SDS011;38569;52.722;6.440;2022-10-17T00:23:24;14.18;;;6.20;;
52674;SDS011;38569;52.722;6.440;2022-10-17T00:25:58;10.20;;;5.05;;
52674;SDS011;38569;52.722;6.440;2022-10-17T00:28:28;11.10;;;6.15;;
52674;SDS011;38569;52.722;6.440;2022-10-17T00:30:55;12.32;;;5.70;;
52674;SDS011;38569;52.722;6.440;2022-10-17T00:33:23;11.43;;;4.80;;
52674;SDS011;38569;52.722;6.440;2022-10-17T00:35:48;9.50;;;5.32;;
52674;SDS011;38569;52.722;6.440;2022-10-17T00:38:14;11.98;;;5.97;;
52674;SDS011;38569;52.722;6.440;2022-10-17T00:40:40;9.52;;;5.65;;
52674;SDS011;38569;52.722;6.440;2022-10-17T00:43:12;10.68;;;5.20;;
52674;SDS011;38569;52.722;6.440;2022-10-17T00:45:41;10.75;;;5.43;;
52674;SDS011;38569;52.722;6.440;2022-10-17T00:48:06;8.75;;;5.20;;
52674;SDS011;38569;52.722;6.440;2022-10-17T00:50:34;15.55;;;6.55;;
52674;SDS011;38569;52.722;6.440;2022-10-17T00:53:02;10.10;;;6.47;;
52674;SDS011;38569;52.722;6.440;2022-10-17T00:55:31;10.40;;;5.15;;
52674;SDS011;38569;52.722;6.440;2022-10-17T00:57:59;12.18;;;5.07;;
52674;SDS011;38569;52.722;6.440;2022-10-17T01:00:27;9.25;;;5.60;;
52674;SDS011;38569;52.722;6.440;2022-10-17T01:02:53;13.68;;;5.55;;
52674;SDS011;38569;52.722;6.440;2022-10-17T01:05:19;9.60;;;6.28;;
52674;SDS011;38569;52.722;6.440;2022-10-17T01:07:45;10.23;;;6.35;;
52674;SDS011;38569;52.722;6.440;2022-10-17T01:10:13;9.00;;;6.10;;
52674;SDS011;38569;52.722;6.440;2022-10-17T01:13:25;10.00;;;5.82;;
52674;SDS011;38569;52.722;6.440;2022-10-17T01:15:41;11.77;;;6.75;;
52674;SDS011;38569;52.722;6.440;2022-10-17T01:23:49;16.35;;;6.40;;
52674;SDS011;38569;52.722;6.440;2022-10-17T01:34:56;10.68;;;6.93;;
52674;SDS011;38569;52.722;6.440;2022-10-17T01:37:38;10.18;;;7.15;;
52674;SDS011;38569;52.722;6.440;2022-10-17T01:40:21;9.55;;;7.20;;
52674;SDS011;38569;52.722;6.440;2022-10-17T01:48:08;10.52;;;7.43;;
52674;SDS011;38569;52.722;6.440;2022-10-17T01:50:40;12.20;;;7.60;;
52674;SDS011;38569;52.722;6.440;2022-10-17T01:53:14;11.93;;;7.93;;
52674;SDS011;38569;52.722;6.440;2022-10-17T01:55:44;13.85;;;8.02;;
52674;SDS011;38569;52.722;6.440;2022-10-17T01:58:12;11.00;;;8.25;;
52674;SDS011;38569;52.722;6.440;2022-10-17T02:00:44;15.20;;;8.30;;
52674;SDS011;38569;52.722;6.440;2022-10-17T02:03:13;11.70;;;8.57;;
52674;SDS011;38569;52.722;6.440;2022-10-17T02:05:41;16.50;;;8.55;;
52674;SDS011;38569;52.722;6.440;2022-10-17T02:08:09;15.70;;;9.00;;
52674;SDS011;38569;52.722;6.440;2022-10-17T02:10:36;16.88;;;10.23;;
52674;SDS011;38569;52.722;6.440;2022-10-17T02:16:13;11.52;;;9.73;;
52674;SDS011;38569;52.722;6.440;2022-10-17T02:19:05;12.85;;;9.52;;
52674;SDS011;38569;52.722;6.440;2022-10-17T02:24:19;12.40;;;10.32;;
52674;SDS011;38569;52.722;6.440;2022-10-17T02:26:54;12.98;;;10.00;;
52674;SDS011;38569;52.722;6.440;2022-10-17T02:29:29;15.00;;;10.55;;
52674;SDS011;38569;52.722;6.440;2022-10-17T02:32:07;16.77;;;11.35;;
52674;SDS011;38569;52.722;6.440;2022-10-17T02:34:42;13.65;;;10.23;;
52674;SDS011;38569;52.722;6.440;2022-10-17T02:37:12;13.73;;;10.90;;
52674;SDS011;38569;52.722;6.440;2022-10-17T02:39:41;14.05;;;11.95;;
52674;SDS011;38569;52.722;6.440;2022-10-17T02:42:08;15.23;;;11.30;;
52674;SDS011;38569;52.722;6.440;2022-10-17T02:44:36;14.82;;;10.82;;
52674;SDS011;38569;52.722;6.440;2022-10-17T02:47:08;17.85;;;12.48;;
52674;SDS011;38569;52.722;6.440;2022-10-17T02:49:40;15.30;;;12.23;;
52674;SDS011;38569;52.722;6.440;2022-10-17T02:57:18;15.88;;;12.13;;
52674;SDS011;38569;52.722;6.440;2022-10-17T03:00:06;14.57;;;11.85;;
52674;SDS011;38569;52.722;6.440;2022-10-17T03:02:42;15.57;;;12.18;;
52674;SDS011;38569;52.722;6.440;2022-10-17T03:05:14;18.52;;;13.70;;
52674;SDS011;38569;52.722;6.440;2022-10-17T03:07:42;15.05;;;13.55;;
52674;SDS011;38569;52.722;6.440;2022-10-17T03:10:07;17.45;;;13.85;;
52674;SDS011;38569;52.722;6.440;2022-10-17T03:12:33;16.10;;;12.57;;
52674;SDS011;38569;52.722;6.440;2022-10-17T03:14:59;17.67;;;13.45;;
52674;SDS011;38569;52.722;6.440;2022-10-17T03:17:25;17.33;;;14.20;;
52674;SDS011;38569;52.722;6.440;2022-10-17T03:19:50;18.55;;;14.00;;
52674;SDS011;38569;52.722;6.440;2022-10-17T03:22:16;19.85;;;14.65;;
52674;SDS011;38569;52.722;6.440;2022-10-17T03:24:42;16.90;;;14.20;;
52674;SDS011;38569;52.722;6.440;2022-10-17T03:27:07;24.05;;;15.50;;
52674;SDS011;38569;52.722;6.440;2022-10-17T03:29:33;16.23;;;14.02;;
52674;SDS011;38569;52.722;6.440;2022-10-17T03:31:59;21.00;;;15.23;;
52674;SDS011;38569;52.722;6.440;2022-10-17T03:34:24;19.77;;;15.55;;
52674;SDS011;38569;52.722;6.440;2022-10-17T03:36:50;19.40;;;16.27;;
52674;SDS011;38569;52.722;6.440;2022-10-17T03:39:16;20.60;;;16.05;;
52674;SDS011;38569;52.722;6.440;2022-10-17T03:41:42;20.02;;;16.65;;
52674;SDS011;38569;52.722;6.440;2022-10-17T03:44:07;18.17;;;14.50;;
52674;SDS011;38569;52.722;6.440;2022-10-17T03:46:33;18.02;;;16.13;;
52674;SDS011;38569;52.722;6.440;2022-10-17T03:48:59;18.38;;;15.85;;
52674;SDS011;38569;52.722;6.440;2022-10-17T03:51:24;20.67;;;16.38;;
52674;SDS011;38569;52.722;6.440;2022-10-17T03:53:50;16.70;;;15.05;;
52674;SDS011;38569;52.722;6.440;2022-10-17T03:56:22;20.10;;;17.45;;
52674;SDS011;38569;52.722;6.440;2022-10-17T03:58:49;26.02;;;17.60;;
52674;SDS011;38569;52.722;6.440;2022-10-17T04:01:16;20.58;;;17.85;;
52674;SDS011;38569;52.722;6.440;2022-10-17T04:03:42;19.42;;;16.48;;
52674;SDS011;38569;52.722;6.440;2022-10-17T04:06:10;23.20;;;17.58;;
52674;SDS011;38569;52.722;6.440;2022-10-17T04:08:37;20.33;;;16.95;;
52674;SDS011;38569;52.722;6.440;2022-10-17T04:11:04;20.35;;;18.05;;
52674;SDS011;38569;52.722;6.440;2022-10-17T04:13:32;23.00;;;17.27;;
52674;SDS011;38569;52.722;6.440;2022-10-17T04:15:59;20.67;;;15.57;;
52674;SDS011;38569;52.722;6.440;2022-10-17T04:18:30;22.45;;;18.70;;
52674;SDS011;38569;52.722;6.440;2022-10-17T04:20:56;22.77;;;17.67;;
52674;SDS011;38569;52.722;6.440;2022-10-17T04:23:22;24.77;;;18.83;;
52674;SDS011;38569;52.722;6.440;2022-10-17T04:25:47;27.92;;;18.45;;
52674;SDS011;38569;52.722;6.440;2022-10-17T04:28:13;22.88;;;19.90;;
52674;SDS011;38569;52.722;6.440;2022-10-17T04:30:39;19.73;;;17.08;;
52674;SDS011;38569;52.722;6.440;2022-10-17T04:33:05;24.10;;;17.98;;
52674;SDS011;38569;52.722;6.440;2022-10-17T04:35:31;28.35;;;19.88;;
52674;SDS011;38569;52.722;6.440;2022-10-17T04:37:57;22.73;;;17.83;;
52674;SDS011;38569;52.722;6.440;2022-10-17T04:40:23;24.92;;;19.77;;
52674;SDS011;38569;52.722;6.440;2022-10-17T04:42:48;22.08;;;17.75;;
52674;SDS011;38569;52.722;6.440;2022-10-17T04:45:14;22.60;;;18.63;;
52674;SDS011;38569;52.722;6.440;2022-10-17T04:47:40;22.45;;;17.63;;
52674;SDS011;38569;52.722;6.440;2022-10-17T04:50:06;27.85;;;19.33;;
52674;SDS011;38569;52.722;6.440;2022-10-17T04:52:33;21.77;;;17.08;;
52674;SDS011;38569;52.722;6.440;2022-10-17T04:55:01;20.98;;;16.83;;
52674;SDS011;38569;52.722;6.440;2022-10-17T04:57:28;19.08;;;17.02;;
52674;SDS011;38569;52.722;6.440;2022-10-17T04:59:54;20.80;;;18.55;;
52674;SDS011;38569;52.722;6.440;2022-10-17T05:02:20;19.73;;;16.58;;
52674;SDS011;38569;52.722;6.440;2022-10-17T05:04:45;22.90;;;17.48;;
52674;SDS011;38569;52.722;6.440;2022-10-17T05:07:11;19.80;;;16.50;;
52674;SDS011;38569;52.722;6.440;2022-10-17T05:09:37;18.75;;;16.75;;
52674;SDS011;38569;52.722;6.440;2022-10-17T05:12:02;21.27;;;17.02;;
52674;SDS011;38569;52.722;6.440;2022-10-17T05:14:28;22.63;;;16.63;;
52674;SDS011;38569;52.722;6.440;2022-10-17T05:16:54;19.25;;;16.25;;
52674;SDS011;38569;52.722;6.440;2022-10-17T05:19:19;16.83;;;14.85;;
52674;SDS011;38569;52.722;6.440;2022-10-17T05:21:45;22.65;;;16.63;;
52674;SDS011;38569;52.722;6.440;2022-10-17T05:24:12;22.48;;;17.33;;
52674;SDS011;38569;52.722;6.440;2022-10-17T05:26:38;19.63;;;15.10;;
52674;SDS011;38569;52.722;6.440;2022-10-17T05:29:04;23.67;;;15.73;;
52674;SDS011;38569;52.722;6.440;2022-10-17T05:31:30;16.23;;;14.30;;
52674;SDS011;38569;52.722;6.440;2022-10-17T05:34:00;21.23;;;16.27;;
52674;SDS011;38569;52.722;6.440;2022-10-17T05:36:27;20.13;;;15.75;;
52674;SDS011;38569;52.722;6.440;2022-10-17T05:38:52;18.23;;;16.20;;
52674;SDS011;38569;52.722;6.440;2022-10-17T05:41:18;21.30;;;16.10;;
52674;SDS011;38569;52.722;6.440;2022-10-17T05:43:45;20.88;;;15.35;;
52674;SDS011;38569;52.722;6.440;2022-10-17T05:46:11;18.90;;;16.17;;
52674;SDS011;38569;52.722;6.440;2022-10-17T05:48:37;22.15;;;16.52;;
52674;SDS011;38569;52.722;6.440;2022-10-17T05:51:04;19.55;;;16.40;;
52674;SDS011;38569;52.722;6.440;2022-10-17T05:53:33;20.90;;;16.02;;
52674;SDS011;38569;52.722;6.440;2022-10-17T05:56:02;20.90;;;15.18;;
52674;SDS011;38569;52.722;6.440;2022-10-17T05:58:29;23.30;;;17.08;;
52674;SDS011;38569;52.722;6.440;2022-10-17T06:00:59;21.83;;;16.42;;
52674;SDS011;38569;52.722;6.440;2022-10-17T06:03:27;19.63;;;14.73;;
52674;SDS011;38569;52.722;6.440;2022-10-17T06:05:53;19.58;;;15.80;;
52674;SDS011;38569;52.722;6.440;2022-10-17T06:08:19;18.15;;;14.10;;
52674;SDS011;38569;52.722;6.440;2022-10-17T06:10:49;16.17;;;14.48;;
52674;SDS011;38569;52.722;6.440;2022-10-17T06:13:16;22.40;;;16.50;;
52674;SDS011;38569;52.722;6.440;2022-10-17T06:15:42;19.30;;;14.70;;
52674;SDS011;38569;52.722;6.440;2022-10-17T06:18:09;17.00;;;14.38;;
52674;SDS011;38569;52.722;6.440;2022-10-17T06:20:35;20.33;;;14.98;;
52674;SDS011;38569;52.722;6.440;2022-10-17T06:23:01;19.67;;;14.70;;
52674;SDS011;38569;52.722;6.440;2022-10-17T06:25:29;17.50;;;14.20;;
52674;SDS011;38569;52.722;6.440;2022-10-17T06:27:58;22.30;;;15.05;;
52674;SDS011;38569;52.722;6.440;2022-10-17T06:30:24;16.58;;;12.88;;
52674;SDS011;38569;52.722;6.440;2022-10-17T06:32:50;15.45;;;12.48;;
52674;SDS011;38569;52.722;6.440;2022-10-17T06:35:17;15.23;;;12.32;;
52674;SDS011;38569;52.722;6.440;2022-10-17T06:37:43;21.60;;;12.82;;
52674;SDS011;38569;52.722;6.440;2022-10-17T06:40:09;15.73;;;12.38;;
52674;SDS011;38569;52.722;6.440;2022-10-17T06:42:36;14.07;;;11.65;;
52674;SDS011;38569;52.722;6.440;2022-10-17T06:45:03;14.98;;;12.27;;
52674;SDS011;38569;52.722;6.440;2022-10-17T06:47:29;13.55;;;11.63;;
52674;SDS011;38569;52.722;6.440;2022-10-17T06:49:55;15.18;;;12.00;;
52674;SDS011;38569;52.722;6.440;2022-10-17T06:52:21;14.38;;;11.02;;
52674;SDS011;38569;52.722;6.440;2022-10-17T06:54:47;16.20;;;11.85;;
52674;SDS011;38569;52.722;6.440;2022-10-17T06:57:13;14.40;;;11.27;;
52674;SDS011;38569;52.722;6.440;2022-10-17T06:59:38;14.05;;;11.07;;
52674;SDS011;38569;52.722;6.440;2022-10-17T07:02:04;13.20;;;10.68;;
52674;SDS011;38569;52.722;6.440;2022-10-17T07:04:30;14.00;;;10.07;;
52674;SDS011;38569;52.722;6.440;2022-10-17T07:06:56;14.60;;;10.57;;
52674;SDS011;38569;52.722;6.440;2022-10-17T07:09:22;11.80;;;10.52;;
52674;SDS011;38569;52.722;6.440;2022-10-17T07:11:48;12.15;;;10.80;;
52674;SDS011;38569;52.722;6.440;2022-10-17T07:14:14;17.73;;;10.90;;
52674;SDS011;38569;52.722;6.440;2022-10-17T07:16:40;12.38;;;9.13;;
52674;SDS011;38569;52.722;6.440;2022-10-17T07:19:05;15.20;;;9.18;;
52674;SDS011;38569;52.722;6.440;2022-10-17T07:21:31;12.25;;;9.75;;
52674;SDS011;38569;52.722;6.440;2022-10-17T07:23:57;12.43;;;9.30;;
52674;SDS011;38569;52.722;6.440;2022-10-17T07:26:22;14.15;;;9.65;;
52674;SDS011;38569;52.722;6.440;2022-10-17T07:28:50;19.45;;;10.02;;
52674;SDS011;38569;52.722;6.440;2022-10-17T07:31:19;11.90;;;9.00;;
52674;SDS011;38569;52.722;6.440;2022-10-17T07:33:46;10.75;;;8.35;;
52674;SDS011;38569;52.722;6.440;2022-10-17T07:36:12;12.80;;;9.27;;
52674;SDS011;38569;52.722;6.440;2022-10-17T07:38:39;13.00;;;8.65;;
52674;SDS011;38569;52.722;6.440;2022-10-17T07:41:05;14.00;;;9.07;;
52674;SDS011;38569;52.722;6.440;2022-10-17T07:43:32;16.83;;;8.80;;
52674;SDS011;38569;52.722;6.440;2022-10-17T07:46:00;8.82;;;7.93;;
52674;SDS011;38569;52.722;6.440;2022-10-17T07:48:27;10.65;;;8.73;;
52674;SDS011;38569;52.722;6.440;2022-10-17T07:50:53;11.93;;;7.63;;
52674;SDS011;38569;52.722;6.440;2022-10-17T07:53:18;10.30;;;8.43;;
52674;SDS011;38569;52.722;6.440;2022-10-17T07:55:44;12.60;;;8.38;;
52674;SDS011;38569;52.722;6.440;2022-10-17T07:58:11;11.18;;;7.95;;
52674;SDS011;38569;52.722;6.440;2022-10-17T08:00:38;11.98;;;9.80;;
52674;SDS011;38569;52.722;6.440;2022-10-17T08:03:04;10.20;;;7.97;;
52674;SDS011;38569;52.722;6.440;2022-10-17T08:05:30;12.05;;;7.50;;
52674;SDS011;38569;52.722;6.440;2022-10-17T08:07:56;13.70;;;8.73;;
52674;SDS011;38569;52.722;6.440;2022-10-17T08:10:22;10.75;;;8.95;;
52674;SDS011;38569;52.722;6.440;2022-10-17T08:12:54;11.32;;;8.75;;
52674;SDS011;38569;52.722;6.440;2022-10-17T08:15:22;12.15;;;8.43;;
52674;SDS011;38569;52.722;6.440;2022-10-17T08:17:48;13.45;;;8.55;;
52674;SDS011;38569;52.722;6.440;2022-10-17T08:20:14;12.30;;;8.00;;
52674;SDS011;38569;52.722;6.440;2022-10-17T08:22:40;9.90;;;8.45;;
52674;SDS011;38569;52.722;6.440;2022-10-17T08:25:06;10.75;;;8.38;;
52674;SDS011;38569;52.722;6.440;2022-10-17T08:27:33;12.05;;;8.32;;
52674;SDS011;38569;52.722;6.440;2022-10-17T08:29:59;13.10;;;8.48;;
52674;SDS011;38569;52.722;6.440;2022-10-17T08:32:26;12.30;;;7.60;;
52674;SDS011;38569;52.722;6.440;2022-10-17T08:34:52;9.40;;;7.95;;
52674;SDS011;38569;52.722;6.440;2022-10-17T08:37:19;12.73;;;8.63;;
52674;SDS011;38569;52.722;6.440;2022-10-17T08:39:46;15.02;;;8.82;;
52674;SDS011;38569;52.722;6.440;2022-10-17T08:45:02;13.32;;;8.23;;
52674;SDS011;38569;52.722;6.440;2022-10-17T08:47:45;12.48;;;8.15;;
52674;SDS011;38569;52.722;6.440;2022-10-17T08:50:26;10.45;;;8.75;;
52674;SDS011;38569;52.722;6.440;2022-10-17T08:53:05;12.95;;;8.68;;
52674;SDS011;38569;52.722;6.440;2022-10-17T08:55:48;10.38;;;9.02;;
52674;SDS011;38569;52.722;6.440;2022-10-17T08:58:21;14.25;;;9.05;;
52674;SDS011;38569;52.722;6.440;2022-10-17T09:20:46;11.43;;;8.07;;
52674;SDS011;38569;52.722;6.440;2022-10-17T09:23:16;12.30;;;8.10;;
52674;SDS011;38569;52.722;6.440;2022-10-17T09:25:54;23.95;;;9.80;;
52674;SDS011;38569;52.722;6.440;2022-10-17T09:28:24;11.80;;;8.98;;
52674;SDS011;38569;52.722;6.440;2022-10-17T09:35:59;21.25;;;10.40;;
52674;SDS011;38569;52.722;6.440;2022-10-17T09:38:29;14.60;;;10.32;;
52674;SDS011;38569;52.722;6.440;2022-10-17T09:41:02;15.82;;;10.32;;
52674;SDS011;38569;52.722;6.440;2022-10-17T09:43:28;17.77;;;10.50;;
52674;SDS011;38569;52.722;6.440;2022-10-17T09:48:32;16.00;;;11.07;;
52674;SDS011;38569;52.722;6.440;2022-10-17T09:51:04;16.55;;;11.63;;
52674;SDS011;38569;52.722;6.440;2022-10-17T09:53:33;25.73;;;12.70;;
52674;SDS011;38569;52.722;6.440;2022-10-17T09:56:05;21.42;;;12.95;;
52674;SDS011;38569;52.722;6.440;2022-10-17T09:59:17;26.52;;;13.85;;
52674;SDS011;38569;52.722;6.440;2022-10-17T10:06:38;30.00;;;17.40;;
52674;SDS011;38569;52.722;6.440;2022-10-17T10:09:05;28.35;;;15.75;;
52674;SDS011;38569;52.722;6.440;2022-10-17T10:11:46;22.60;;;15.57;;
52674;SDS011;38569;52.722;6.440;2022-10-17T10:14:17;33.50;;;19.92;;
52674;SDS011;38569;52.722;6.440;2022-10-17T10:16:53;25.52;;;17.00;;
52674;SDS011;38569;52.722;6.440;2022-10-17T10:19:29;30.10;;;16.40;;
52674;SDS011;38569;52.722;6.440;2022-10-17T10:22:03;38.22;;;20.55;;
52674;SDS011;38569;52.722;6.440;2022-10-17T10:24:31;29.73;;;17.65;;
52674;SDS011;38569;52.722;6.440;2022-10-17T10:27:01;34.85;;;17.17;;
52674;SDS011;38569;52.722;6.440;2022-10-17T10:29:30;39.10;;;17.50;;
52674;SDS011;38569;52.722;6.440;2022-10-17T10:37:28;43.33;;;20.75;;
52674;SDS011;38569;52.722;6.440;2022-10-17T10:40:22;26.13;;;17.35;;
52674;SDS011;38569;52.722;6.440;2022-10-17T10:42:50;43.78;;;18.40;;
52674;SDS011;38569;52.722;6.440;2022-10-17T10:45:25;41.95;;;20.42;;
52674;SDS011;38569;52.722;6.440;2022-10-17T10:48:04;34.05;;;19.25;;
52674;SDS011;38569;52.722;6.440;2022-10-17T10:50:41;38.60;;;22.20;;
52674;SDS011;38569;52.722;6.440;2022-10-17T10:55:55;40.25;;;21.52;;
52674;SDS011;38569;52.722;6.440;2022-10-17T10:58:48;44.20;;;23.05;;
52674;SDS011;38569;52.722;6.440;2022-10-17T11:06:41;41.22;;;22.75;;
52674;SDS011;38569;52.722;6.440;2022-10-17T11:11:43;51.58;;;24.55;;
52674;SDS011;38569;52.722;6.440;2022-10-17T11:14:46;43.90;;;22.75;;
52674;SDS011;38569;52.722;6.440;2022-10-17T11:22:53;32.47;;;20.52;;
52674;SDS011;38569;52.722;6.440;2022-10-17T11:25:28;30.33;;;20.58;;
52674;SDS011;38569;52.722;6.440;2022-10-17T11:27:55;44.88;;;22.98;;
52674;SDS011;38569;52.722;6.440;2022-10-17T11:30:22;29.67;;;20.50;;
52674;SDS011;38569;52.722;6.440;2022-10-17T11:32:58;31.73;;;20.30;;
52674;SDS011;38569;52.722;6.440;2022-10-17T11:35:27;31.00;;;20.50;;
52674;SDS011;38569;52.722;6.440;2022-10-17T11:40:30;26.60;;;18.13;;
52674;SDS011;38569;52.722;6.440;2022-10-17T11:43:04;29.45;;;20.27;;
52674;SDS011;38569;52.722;6.440;2022-10-17T11:45:44;42.20;;;23.48;;
52674;SDS011;38569;52.722;6.440;2022-10-17T11:50:45;29.25;;;19.58;;
52674;SDS011;38569;52.722;6.440;2022-10-17T11:53:23;24.33;;;16.73;;
52674;SDS011;38569;52.722;6.440;2022-10-17T11:55:52;30.75;;;18.70;;
52674;SDS011;38569;52.722;6.440;2022-10-17T12:09:16;22.70;;;17.55;;
52674;SDS011;38569;52.722;6.440;2022-10-17T12:11:54;26.00;;;18.35;;
52674;SDS011;38569;52.722;6.440;2022-10-17T12:17:01;23.67;;;17.23;;
52674;SDS011;38569;52.722;6.440;2022-10-17T12:19:30;19.60;;;16.38;;
52674;SDS011;38569;52.722;6.440;2022-10-17T12:35:27;20.35;;;14.32;;
52674;SDS011;38569;52.722;6.440;2022-10-17T12:45:50;12.88;;;11.50;;
52674;SDS011;38569;52.722;6.440;2022-10-17T12:53:35;18.35;;;12.48;;
52674;SDS011;38569;52.722;6.440;2022-10-17T12:59:20;13.55;;;10.77;;
52674;SDS011;38569;52.722;6.440;2022-10-17T13:01:52;13.27;;;10.23;;
52674;SDS011;38569;52.722;6.440;2022-10-17T13:04:23;16.52;;;13.05;;
52674;SDS011;38569;52.722;6.440;2022-10-17T13:06:51;14.07;;;11.90;;
52674;SDS011;38569;52.722;6.440;2022-10-17T13:09:30;15.02;;;11.82;;
52674;SDS011;38569;52.722;6.440;2022-10-17T13:12:00;18.45;;;11.38;;
52674;SDS011;38569;52.722;6.440;2022-10-17T13:14:28;14.38;;;11.25;;
52674;SDS011;38569;52.722;6.440;2022-10-17T13:19:59;13.85;;;11.15;;
52674;SDS011;38569;52.722;6.440;2022-10-17T13:22:28;14.55;;;11.60;;
52674;SDS011;38569;52.722;6.440;2022-10-17T13:25:08;16.42;;;12.73;;
52674;SDS011;38569;52.722;6.440;2022-10-17T13:27:39;9.27;;;7.05;;
52674;SDS011;38569;52.722;6.440;2022-10-17T13:32:53;8.95;;;5.97;;
52674;SDS011;38569;52.722;6.440;2022-10-17T13:35:35;8.82;;;5.68;;
52674;SDS011;38569;52.722;6.440;2022-10-17T13:38:03;8.50;;;5.70;;
52674;SDS011;38569;52.722;6.440;2022-10-17T13:40:40;7.50;;;5.45;;
52674;SDS011;38569;52.722;6.440;2022-10-17T13:43:15;6.80;;;4.65;;
52674;SDS011;38569;52.722;6.440;2022-10-17T13:45:47;11.48;;;6.32;;
52674;SDS011;38569;52.722;6.440;2022-10-17T13:48:19;10.82;;;4.85;;
52674;SDS011;38569;52.722;6.440;2022-10-17T13:50:52;9.45;;;5.72;;
52674;SDS011;38569;52.722;6.440;2022-10-17T13:56:03;7.25;;;4.75;;
52674;SDS011;38569;52.722;6.440;2022-10-17T13:58:50;10.00;;;6.15;;
52674;SDS011;38569;52.722;6.440;2022-10-17T14:01:18;11.20;;;5.45;;
52674;SDS011;38569;52.722;6.440;2022-10-17T14:03:45;12.43;;;6.07;;
52674;SDS011;38569;52.722;6.440;2022-10-17T14:06:22;8.57;;;5.88;;
52674;SDS011;38569;52.722;6.440;2022-10-17T14:08:53;12.85;;;6.97;;
52674;SDS011;38569;52.722;6.440;2022-10-17T14:11:35;10.80;;;7.57;;
52674;SDS011;38569;52.722;6.440;2022-10-17T14:14:05;8.90;;;5.28;;
52674;SDS011;38569;52.722;6.440;2022-10-17T14:16:42;13.15;;;5.57;;
52674;SDS011;38569;52.722;6.440;2022-10-17T14:19:28;10.00;;;5.60;;
52674;SDS011;38569;52.722;6.440;2022-10-17T14:24:47;7.50;;;4.35;;
52674;SDS011;38569;52.722;6.440;2022-10-17T14:27:30;10.25;;;5.00;;
52674;SDS011;38569;52.722;6.440;2022-10-17T14:30:05;7.80;;;4.95;;
52674;SDS011;38569;52.722;6.440;2022-10-17T14:32:55;8.18;;;4.28;;
52674;SDS011;38569;52.722;6.440;2022-10-17T14:35:23;11.85;;;5.00;;
52674;SDS011;38569;52.722;6.440;2022-10-17T14:37:50;8.93;;;5.43;;
52674;SDS011;38569;52.722;6.440;2022-10-17T14:40:19;8.20;;;5.78;;
52674;SDS011;38569;52.722;6.440;2022-10-17T14:42:49;9.70;;;6.25;;
52674;SDS011;38569;52.722;6.440;2022-10-17T14:45:25;9.20;;;5.47;;
52674;SDS011;38569;52.722;6.440;2022-10-17T14:47:54;10.23;;;6.60;;
52674;SDS011;38569;52.722;6.440;2022-10-17T14:50:25;10.93;;;7.13;;
52674;SDS011;38569;52.722;6.440;2022-10-17T14:55:27;12.03;;;6.93;;
52674;SDS011;38569;52.722;6.440;2022-10-17T14:57:54;12.75;;;8.43;;
52674;SDS011;38569;52.722;6.440;2022-10-17T15:00:21;13.55;;;8.35;;
52674;SDS011;38569;52.722;6.440;2022-10-17T15:02:48;12.68;;;8.30;;
52674;SDS011;38569;52.722;6.440;2022-10-17T15:05:15;10.25;;;6.55;;
52674;SDS011;38569;52.722;6.440;2022-10-17T15:07:41;9.95;;;7.57;;
52674;SDS011;38569;52.722;6.440;2022-10-17T15:10:22;13.93;;;8.43;;
52674;SDS011;38569;52.722;6.440;2022-10-17T15:12:57;8.25;;;5.35;;
52674;SDS011;38569;52.722;6.440;2022-10-17T15:15:24;9.10;;;6.00;;
52674;SDS011;38569;52.722;6.440;2022-10-17T15:17:51;12.75;;;7.70;;
52674;SDS011;38569;52.722;6.440;2022-10-17T15:20:16;19.65;;;11.38;;
52674;SDS011;38569;52.722;6.440;2022-10-17T15:22:43;11.55;;;7.35;;
52674;SDS011;38569;52.722;6.440;2022-10-17T15:25:08;7.70;;;5.18;;
52674;SDS011;38569;52.722;6.440;2022-10-17T15:27:34;9.27;;;6.05;;
52674;SDS011;38569;52.722;6.440;2022-10-17T15:30:00;7.22;;;6.20;;
52674;SDS011;38569;52.722;6.440;2022-10-17T15:32:26;11.30;;;6.10;;
52674;SDS011;38569;52.722;6.440;2022-10-17T15:34:51;9.60;;;5.57;;
52674;SDS011;38569;52.722;6.440;2022-10-17T15:37:19;8.05;;;5.93;;
52674;SDS011;38569;52.722;6.440;2022-10-17T15:39:50;9.45;;;5.53;;
52674;SDS011;38569;52.722;6.440;2022-10-17T15:42:18;10.57;;;5.43;;
52674;SDS011;38569;52.722;6.440;2022-10-17T15:44:51;13.27;;;8.07;;
52674;SDS011;38569;52.722;6.440;2022-10-17T15:47:18;9.98;;;7.35;;
52674;SDS011;38569;52.722;6.440;2022-10-17T15:49:48;12.15;;;8.60;;
52674;SDS011;38569;52.722;6.440;2022-10-17T15:52:14;15.27;;;10.13;;
52674;SDS011;38569;52.722;6.440;2022-10-17T15:54:40;13.23;;;9.45;;
52674;SDS011;38569;52.722;6.440;2022-10-17T15:57:07;14.40;;;9.05;;
52674;SDS011;38569;52.722;6.440;2022-10-17T15:59:46;9.68;;;7.60;;
52674;SDS011;38569;52.722;6.440;2022-10-17T16:02:14;9.13;;;7.53;;
52674;SDS011;38569;52.722;6.440;2022-10-17T16:04:41;11.95;;;8.60;;
52674;SDS011;38569;52.722;6.440;2022-10-17T16:07:08;16.45;;;8.57;;
52674;SDS011;38569;52.722;6.440;2022-10-17T16:09:34;13.35;;;7.63;;
52674;SDS011;38569;52.722;6.440;2022-10-17T16:12:01;10.98;;;8.70;;
52674;SDS011;38569;52.722;6.440;2022-10-17T16:14:29;14.48;;;8.77;;
52674;SDS011;38569;52.722;6.440;2022-10-17T16:16:56;12.05;;;10.27;;
52674;SDS011;38569;52.722;6.440;2022-10-17T16:19:25;16.58;;;12.00;;
52674;SDS011;38569;52.722;6.440;2022-10-17T16:21:54;28.88;;;18.13;;
52674;SDS011;38569;52.722;6.440;2022-10-17T16:24:25;20.58;;;14.02;;
52674;SDS011;38569;52.722;6.440;2022-10-17T16:26:51;34.88;;;18.65;;
52674;SDS011;38569;52.722;6.440;2022-10-17T16:29:16;22.15;;;13.98;;
52674;SDS011;38569;52.722;6.440;2022-10-17T16:31:43;21.92;;;14.05;;
52674;SDS011;38569;52.722;6.440;2022-10-17T16:34:10;25.63;;;15.85;;
52674;SDS011;38569;52.722;6.440;2022-10-17T16:36:38;18.38;;;13.93;;
52674;SDS011;38569;52.722;6.440;2022-10-17T16:39:04;28.08;;;16.52;;
52674;SDS011;38569;52.722;6.440;2022-10-17T16:41:31;18.65;;;11.77;;
52674;SDS011;38569;52.722;6.440;2022-10-17T16:44:00;17.73;;;12.73;;
52674;SDS011;38569;52.722;6.440;2022-10-17T16:46:27;18.38;;;11.23;;
52674;SDS011;38569;52.722;6.440;2022-10-17T16:48:55;26.13;;;15.48;;
52674;SDS011;38569;52.722;6.440;2022-10-17T16:51:21;35.00;;;21.83;;
52674;SDS011;38569;52.722;6.440;2022-10-17T16:53:47;35.72;;;17.98;;
52674;SDS011;38569;52.722;6.440;2022-10-17T16:56:18;27.45;;;18.13;;
52674;SDS011;38569;52.722;6.440;2022-10-17T16:58:45;32.70;;;19.77;;
52674;SDS011;38569;52.722;6.440;2022-10-17T17:01:18;23.63;;;15.88;;
52674;SDS011;38569;52.722;6.440;2022-10-17T17:03:47;27.10;;;18.08;;
52674;SDS011;38569;52.722;6.440;2022-10-17T17:06:15;19.33;;;15.18;;
52674;SDS011;38569;52.722;6.440;2022-10-17T17:08:52;30.30;;;16.88;;
52674;SDS011;38569;52.722;6.440;2022-10-17T17:11:19;27.17;;;18.58;;